createdAt,value
2023-04-11T00:00:42.957Z,95150.38
2023-04-11T00:04:27.986Z,95146.75
2023-04-11T00:08:10.703Z,95139.88
2023-04-11T00:11:53.353Z,95133.59
2023-04-11T00:15:36.236Z,95106.53
2023-04-11T00:19:23.240Z,95118.84
2023-04-11T00:23:08.819Z,95112.34
2023-04-11T00:26:51.740Z,95107.50
2023-04-11T00:30:34.380Z,95120.63
2023-04-11T00:34:17.254Z,95115.19
2023-04-11T00:38:02.157Z,95102.25
2023-04-11T00:41:46.255Z,95100.63
2023-04-11T00:45:31.401Z,95083.22
2023-04-11T00:49:14.254Z,95069.84
2023-04-11T00:52:58.034Z,95065.81
2023-04-11T00:56:41.799Z,95048.81
2023-04-11T01:00:26.332Z,95048.19
2023-04-11T01:04:09.523Z,95052.81
2023-04-11T01:07:54.882Z,95056.06
2023-04-11T01:11:37.675Z,95066.38
2023-04-11T01:15:20.559Z,95056.00
2023-04-11T01:19:05.006Z,95068.16
2023-04-11T01:22:49.863Z,95067.72
2023-04-11T01:26:33.877Z,95061.03
2023-04-11T01:30:16.715Z,95042.63
2023-04-11T01:33:59.675Z,95037.97
2023-04-11T01:37:43.577Z,95036.50
2023-04-11T01:41:29.500Z,95041.78
2023-04-11T01:45:15.181Z,95038.13
2023-04-11T01:48:59.358Z,95032.44
2023-04-11T01:52:42.124Z,95036.47
2023-04-11T01:56:24.821Z,95043.72
2023-04-11T02:00:11.916Z,95036.16
2023-04-11T02:03:56.039Z,95002.31
2023-04-11T02:07:38.872Z,94996.09
2023-04-11T02:11:22.902Z,94988.13
2023-04-11T02:15:06.257Z,94976.50
2023-04-11T02:18:48.843Z,94971.56
2023-04-11T02:22:32.915Z,94968.66
2023-04-11T02:26:15.825Z,94962.06
2023-04-11T02:29:58.448Z,94955.34
2023-04-11T02:33:41.077Z,94953.88
2023-04-11T02:37:26.315Z,94963.22
2023-04-11T02:41:13.694Z,94937.88
2023-04-11T02:44:56.476Z,94933.56
2023-04-11T02:48:39.126Z,94923.81
2023-04-11T02:52:22.942Z,94930.13
2023-04-11T02:56:06.750Z,94940.00
2023-04-11T02:59:50.941Z,94934.28
2023-04-11T03:03:33.700Z,94927.19
2023-04-11T03:07:16.488Z,94924.31
2023-04-11T03:10:59.095Z,94918.03
2023-04-11T03:14:41.703Z,94918.63
2023-04-11T03:18:25.932Z,94918.47
2023-04-11T03:22:12.573Z,94913.78
2023-04-11T03:25:55.244Z,94912.75
2023-04-11T03:29:38.021Z,94909.53
2023-04-11T03:33:20.684Z,94903.47
2023-04-11T03:37:04.927Z,94896.81
2023-04-11T03:40:47.735Z,94891.75
2023-04-11T03:44:30.376Z,94898.19
2023-04-11T03:48:13.216Z,94892.13
2023-04-11T03:51:55.881Z,94890.50
2023-04-11T03:55:40.012Z,94886.28
2023-04-11T03:59:25.572Z,94886.84
2023-04-11T04:03:08.591Z,94871.03
2023-04-11T04:06:56.611Z,94869.56
2023-04-11T04:10:40.677Z,94868.78
2023-04-11T04:14:23.388Z,94870.59
2023-04-11T04:18:06.379Z,94870.38
2023-04-11T04:21:53.719Z,94851.72
2023-04-11T04:25:36.428Z,94853.53
2023-04-11T04:29:20.575Z,94870.16
2023-04-11T04:33:03.738Z,94884.34
2023-04-11T04:36:47.813Z,94894.91
2023-04-11T04:40:31.939Z,94916.41
2023-04-11T04:44:15.945Z,94909.09
2023-04-11T04:48:00.113Z,94905.88
2023-04-11T04:51:42.835Z,94912.31
2023-04-11T04:55:25.949Z,94911.59
2023-04-11T04:59:14.513Z,94907.41
2023-04-11T05:02:57.242Z,94905.78
2023-04-11T05:06:41.431Z,94918.31
2023-04-11T05:10:24.417Z,94917.16
2023-04-11T05:14:07.299Z,94956.81
2023-04-11T05:17:50.051Z,94933.84
2023-04-11T05:21:32.714Z,95003.09
2023-04-11T05:25:16.777Z,94926.06
2023-04-11T05:29:00.797Z,94924.16
2023-04-11T05:32:43.926Z,94926.63
2023-04-11T05:36:28.349Z,94925.75
2023-04-11T05:40:13.748Z,94929.38
2023-04-11T05:43:58.015Z,94926.78
2023-04-11T05:47:40.813Z,94913.84
2023-04-11T05:51:23.513Z,94939.66
2023-04-11T05:55:07.284Z,94941.97
2023-04-11T05:58:50.275Z,94917.97
2023-04-11T06:02:34.511Z,94944.75
2023-04-11T06:06:17.260Z,94928.91
2023-04-11T06:09:59.942Z,94941.78
2023-04-11T06:13:42.660Z,94930.06
2023-04-11T06:17:25.371Z,94964.94
2023-04-11T06:21:09.391Z,94945.16
2023-04-11T06:24:52.832Z,94948.84
2023-04-11T06:28:35.508Z,94951.69
2023-04-11T06:32:18.259Z,94982.59
2023-04-11T06:36:01.311Z,94973.53
2023-04-11T06:39:45.390Z,94982.81
2023-04-11T06:43:28.103Z,95003.09
2023-04-11T06:47:12.524Z,94984.72
2023-04-11T06:50:55.262Z,94974.66
2023-04-11T06:54:37.897Z,94990.69
2023-04-11T06:58:22.322Z,94997.59
2023-04-11T07:02:05.130Z,94981.91
2023-04-11T07:05:48.235Z,94997.25
2023-04-11T07:09:31.450Z,95003.34
2023-04-11T07:13:14.084Z,95003.38
2023-04-11T07:16:58.081Z,95018.16
2023-04-11T07:20:40.861Z,95035.69
2023-04-11T07:24:23.494Z,95017.53
2023-04-11T07:28:08.457Z,95020.56
2023-04-11T07:31:51.464Z,95030.03
2023-04-11T07:35:35.692Z,95024.78
2023-04-11T07:39:18.327Z,95028.00
2023-04-11T07:43:01.825Z,95042.53
2023-04-11T07:46:44.462Z,95044.16
2023-04-11T07:50:27.327Z,95069.16
2023-04-11T07:54:12.308Z,95087.31
2023-04-11T07:57:54.888Z,95081.66
2023-04-11T08:01:37.631Z,95078.81
2023-04-11T08:05:20.735Z,95088.09
2023-04-11T08:09:04.081Z,95086.81
2023-04-11T08:12:48.047Z,95084.78
2023-04-11T08:16:30.672Z,95121.06
2023-04-11T08:20:13.876Z,95123.28
2023-04-11T08:23:56.662Z,95132.66
2023-04-11T08:27:39.853Z,95121.56
2023-04-11T08:31:23.955Z,95137.66
2023-04-11T08:35:07.270Z,95129.38
2023-04-11T08:38:49.907Z,95133.66
2023-04-11T08:42:33.287Z,95129.47
2023-04-11T08:46:17.788Z,95140.69
2023-04-11T08:50:01.858Z,95152.75
2023-04-11T08:53:44.541Z,95116.06
2023-04-11T08:57:28.536Z,95123.25
2023-04-11T09:01:28.744Z,95129.63
2023-04-11T09:05:25.857Z,95125.31
2023-04-11T09:09:09.696Z,95146.50
2023-04-11T09:12:52.443Z,95154.34
2023-04-11T09:16:35.865Z,95155.41
2023-04-11T09:20:21.037Z,95157.59
2023-04-11T09:24:15.601Z,95159.25
2023-04-11T09:28:16.285Z,95149.56
2023-04-11T09:31:58.963Z,95164.97
2023-04-11T09:35:43.029Z,95159.66
2023-04-11T09:39:28.385Z,95182.94
2023-04-11T09:43:11.112Z,95180.34
2023-04-11T09:46:57.719Z,95182.16
2023-04-11T09:50:40.507Z,95184.81
2023-04-11T09:54:24.758Z,95200.28
2023-04-11T09:58:11.115Z,95193.97
2023-04-11T10:01:54.360Z,95190.81
2023-04-11T10:05:38.975Z,95186.78
2023-04-11T10:09:22.027Z,95209.00
2023-04-11T10:13:41.086Z,95215.59
2023-04-11T10:17:24.895Z,95192.47
2023-04-11T10:21:40.959Z,95200.97
2023-04-11T10:25:24.708Z,95206.22
2023-04-11T10:29:48.358Z,95195.72
2023-04-11T10:33:33.127Z,95198.09
2023-04-11T10:37:15.732Z,95188.38
2023-04-11T10:41:18.783Z,95211.78
2023-04-11T10:45:20.386Z,95217.06
2023-04-11T10:49:04.348Z,95219.03
2023-04-11T10:52:47.021Z,95216.94
2023-04-11T10:56:54.706Z,95251.88
2023-04-11T11:01:13.295Z,95218.63
2023-04-11T11:05:18.536Z,95243.66
2023-04-11T11:09:01.676Z,95229.78
2023-04-11T11:12:55.050Z,95218.84
2023-04-11T11:16:37.836Z,95219.88
2023-04-11T11:20:21.912Z,95230.16
2023-04-11T11:24:05.044Z,95232.72
2023-04-11T11:27:47.653Z,95228.78
2023-04-11T11:31:36.597Z,95245.84
2023-04-11T11:35:21.208Z,95249.41
2023-04-11T11:39:05.346Z,95253.91
2023-04-11T11:42:48.047Z,95261.59
2023-04-11T11:46:33.676Z,95242.34
2023-04-11T11:50:27.625Z,95238.59
2023-04-11T11:54:12.123Z,95255.34
2023-04-11T11:57:54.841Z,95261.38
2023-04-11T12:01:38.102Z,95256.97
2023-04-11T12:05:20.988Z,95264.47
2023-04-11T12:09:08.984Z,95273.09
2023-04-11T12:12:53.620Z,95265.06
2023-04-11T12:16:38.445Z,95232.38
2023-04-11T12:20:23.877Z,95234.41
2023-04-11T12:24:09.869Z,95243.50
2023-04-11T12:27:52.597Z,95241.72
2023-04-11T12:31:35.448Z,95253.44
2023-04-11T12:35:18.144Z,95240.91
2023-04-11T12:39:00.794Z,95220.94
2023-04-11T12:44:23.046Z,95244.16
2023-04-11T12:46:49.458Z,95219.91
2023-04-11T12:50:32.323Z,95255.88
2023-04-11T12:54:15.013Z,95236.88
2023-04-11T12:57:59.000Z,95239.31
2023-04-11T13:01:41.881Z,95249.03
2023-04-11T13:05:24.759Z,95237.31
2023-04-11T13:09:07.811Z,95234.06
2023-04-11T13:12:53.253Z,95242.94
2023-04-11T13:16:37.289Z,95217.88
2023-04-11T13:20:19.979Z,95211.97
2023-04-11T13:24:03.620Z,95215.75
2023-04-11T13:27:46.292Z,95230.09
2023-04-11T13:31:29.105Z,95224.44
2023-04-11T13:35:13.088Z,95204.38
2023-04-11T13:38:56.643Z,95197.94
2023-04-11T13:42:39.741Z,95222.66
2023-04-11T13:46:24.717Z,95198.75
2023-04-11T13:50:09.439Z,95184.75
2023-04-11T13:53:53.461Z,95182.47
2023-04-11T13:57:36.169Z,95195.38
2023-04-11T14:01:20.056Z,95185.13
2023-04-11T14:05:02.770Z,95180.97
2023-04-11T14:08:45.426Z,95183.94
2023-04-11T14:12:29.500Z,95176.34
2023-04-11T14:16:12.163Z,95189.63
2023-04-11T14:19:54.790Z,95195.66
2023-04-11T14:23:37.414Z,95194.47
2023-04-11T14:27:20.047Z,95189.97
2023-04-11T14:31:04.266Z,95186.09
2023-04-11T14:34:47.081Z,95191.47
2023-04-11T14:38:29.773Z,95196.84
2023-04-11T14:42:12.429Z,95195.84
2023-04-11T14:45:59.540Z,95186.34
2023-04-11T14:49:44.029Z,95185.53
2023-04-11T14:53:26.746Z,95196.06
2023-04-11T14:57:09.662Z,95191.81
2023-04-11T15:00:52.545Z,95177.47
2023-04-11T15:04:35.226Z,95178.25
2023-04-11T15:08:19.245Z,95183.72
2023-04-11T15:12:02.170Z,95185.13
2023-04-11T15:15:44.837Z,95162.22
2023-04-11T15:19:28.392Z,95164.75
2023-04-11T15:23:11.036Z,95155.00
2023-04-11T15:26:55.048Z,95154.28
2023-04-11T15:30:40.778Z,95159.69
2023-04-11T15:34:24.768Z,95176.13
2023-04-11T15:38:07.453Z,95145.50
2023-04-11T15:41:52.857Z,95159.06
2023-04-11T15:45:39.316Z,95184.72
2023-04-11T15:49:22.260Z,95153.72
2023-04-11T15:53:07.850Z,95153.31
2023-04-11T15:56:50.620Z,95153.66
2023-04-11T16:00:33.261Z,95146.88
2023-04-11T16:04:19.732Z,95149.97
2023-04-11T16:08:02.508Z,95151.47
2023-04-11T16:11:45.256Z,95163.31
2023-04-11T16:15:28.449Z,95155.38
2023-04-11T16:19:11.123Z,95188.81
2023-04-11T16:22:55.158Z,95166.84
2023-04-11T16:26:38.258Z,95181.41
2023-04-11T16:30:21.067Z,95166.44
2023-04-11T16:34:03.733Z,95154.66
2023-04-11T16:37:46.478Z,95168.59
2023-04-11T16:41:30.835Z,95158.09
2023-04-11T16:45:13.765Z,95189.28
2023-04-11T16:48:56.384Z,95191.72
2023-04-11T16:52:38.975Z,95167.97
2023-04-11T16:56:23.466Z,95165.94
2023-04-11T17:00:11.710Z,95174.41
2023-04-11T17:03:54.597Z,95168.63
2023-04-11T17:07:37.417Z,95158.00
2023-04-11T17:11:20.423Z,95162.34
2023-04-11T17:15:03.100Z,95157.63
2023-04-11T17:18:47.093Z,95161.25
2023-04-11T17:22:30.052Z,95178.25
2023-04-11T17:26:12.953Z,95166.56
2023-04-11T17:29:55.567Z,95167.34
2023-04-11T17:33:38.449Z,95175.00
2023-04-11T17:37:22.481Z,95180.25
2023-04-11T17:41:13.618Z,95179.84
2023-04-11T17:45:03.778Z,95179.41
2023-04-11T17:48:55.480Z,95183.19
2023-04-11T17:52:40.815Z,95179.13
2023-04-11T17:56:23.447Z,95178.13
2023-04-11T18:00:14.930Z,95177.84
2023-04-11T18:03:57.823Z,95183.25
2023-04-11T18:07:44.061Z,95188.06
2023-04-11T18:11:26.712Z,95188.03
2023-04-11T18:15:11.856Z,95189.63
2023-04-11T18:18:54.461Z,95195.66
2023-04-11T18:22:38.328Z,95190.38
2023-04-11T18:26:22.317Z,95199.22
2023-04-11T18:30:06.264Z,95195.72
2023-04-11T18:33:48.964Z,95207.97
2023-04-11T18:37:33.060Z,95204.69
2023-04-11T18:41:16.330Z,95201.03
2023-04-11T18:45:00.385Z,95203.75
2023-04-11T18:48:42.990Z,95207.16
2023-04-11T18:52:26.855Z,95215.75
2023-04-11T18:56:13.012Z,95212.91
2023-04-11T18:59:57.231Z,95220.53
2023-04-11T19:03:42.209Z,95213.66
2023-04-11T19:07:24.967Z,95221.66
2023-04-11T19:11:07.594Z,95215.19
2023-04-11T19:14:50.699Z,95203.47
2023-04-11T19:18:33.399Z,95204.03
2023-04-11T19:22:17.416Z,95202.59
2023-04-11T19:26:00.674Z,95206.56
2023-04-11T19:29:43.339Z,95200.50
2023-04-11T19:33:26.125Z,95206.31
2023-04-11T19:37:08.794Z,95207.69
2023-04-11T19:40:52.832Z,95202.38
2023-04-11T19:44:36.354Z,95197.34
2023-04-11T19:48:18.970Z,95189.94
2023-04-11T19:52:01.596Z,95191.97
2023-04-11T19:55:45.457Z,95191.13
2023-04-11T19:59:29.479Z,95190.63
2023-04-11T20:03:14.684Z,95192.78
2023-04-11T20:07:03.231Z,95173.31
2023-04-11T20:10:45.877Z,95165.56
2023-04-11T20:14:29.923Z,95167.06
2023-04-11T20:18:12.801Z,95163.81
2023-04-11T20:21:55.955Z,95169.63
2023-04-11T20:25:38.604Z,95163.28
2023-04-11T20:29:24.720Z,95146.34
2023-04-11T20:33:08.752Z,95160.78
2023-04-11T20:36:54.164Z,95157.63
2023-04-11T20:40:37.025Z,95155.13
2023-04-11T20:44:24.742Z,95151.44
2023-04-11T20:48:13.212Z,95151.19
2023-04-11T20:51:55.850Z,95150.81
2023-04-11T20:55:38.524Z,95167.50
2023-04-11T20:59:21.702Z,95144.16
2023-04-11T21:03:04.486Z,95146.06
2023-04-11T21:06:48.529Z,95143.19
2023-04-11T21:10:31.211Z,95136.97
2023-04-11T21:14:13.869Z,95143.19
2023-04-11T21:17:56.597Z,95137.09
2023-04-11T21:21:41.946Z,95134.22
2023-04-11T21:25:26.214Z,95134.56
2023-04-11T21:29:10.427Z,95126.56
2023-04-11T21:32:53.871Z,95124.66
2023-04-11T21:36:36.565Z,95117.28
2023-04-11T21:40:19.215Z,95108.81
2023-04-11T21:44:03.327Z,95111.69
2023-04-11T21:47:46.779Z,95109.09
2023-04-11T21:51:29.844Z,95100.63
2023-04-11T21:55:12.857Z,95098.53
2023-04-11T21:58:55.539Z,95092.69
2023-04-11T22:02:42.655Z,95089.00
2023-04-11T22:06:26.564Z,95088.13
2023-04-11T22:10:13.952Z,95073.25
2023-04-11T22:13:58.514Z,95069.38
2023-04-11T22:17:43.649Z,95060.75
2023-04-11T22:21:29.587Z,95059.13
2023-04-11T22:25:12.230Z,95055.72
2023-04-11T22:28:55.422Z,95049.66
2023-04-11T22:32:38.203Z,95054.88
2023-04-11T22:36:22.560Z,95050.56
2023-04-11T22:40:06.872Z,95044.06
2023-04-11T22:43:49.672Z,95036.50
2023-04-11T22:47:34.159Z,95026.25
2023-04-11T22:51:16.863Z,95021.91
2023-04-11T22:55:00.836Z,95014.56
2023-04-11T22:58:45.691Z,95019.28
2023-04-11T23:02:31.606Z,94998.97
2023-04-11T23:06:14.416Z,94999.59
2023-04-11T23:10:00.971Z,95004.22
2023-04-11T23:13:45.053Z,94989.13
2023-04-11T23:17:28.727Z,94988.75
2023-04-11T23:21:14.407Z,94988.41
2023-04-11T23:24:57.058Z,94969.72
2023-04-11T23:28:39.785Z,94961.50
2023-04-11T23:32:23.884Z,94949.19
2023-04-11T23:36:07.761Z,94946.50
2023-04-11T23:39:50.412Z,94940.47
2023-04-11T23:43:33.624Z,94932.81
2023-04-11T23:47:16.369Z,94930.00
2023-04-11T23:51:00.501Z,94928.41
2023-04-11T23:54:43.480Z,94931.25
2023-04-11T23:58:26.213Z,94919.56
